/BCO-DMO/CCAW/pom_concat ---- Level 0

      Directory  DocumentationDownload and Other Operations...

 - At level 0 -  - At last level -       Flat list

#  Underway POM
#  PI: Miguel Goni  
#  Data Version 1: 2020-07-08
=========================
Cruise     Latitude  Longitude     Date_Time_PST      Temperature  Salinity       PN      POC      Beam_attenuation  ISO_DateTime_UTC  
-------------------------
OC1701A    44.6483   -124.1218     1/12/2017 18:17    nd           31.00          2.03    16.23    0.76              2017-01-13T02:17Z  
OC1701A    44.6501   -124.2675     1/12/2017 19:03    9.32         31.27          2.53    16.28    0.47              2017-01-13T03:03Z  
OC1701A    44.65     -124.3432     1/12/2017 19:26    10.72        32.43          1.01    6.29     0.11              2017-01-13T03:26Z  
OC1701A    44.6498   -124.4943     1/12/2017 20:13    10.58        32.33          1.21    8.91     0.14              2017-01-13T04:13Z  
OC1701A    44.6371   -124.4899     1/12/2017 21:00    10.67        32.39          0.91    6.16     0.13              2017-01-13T05:00Z  
OC1701A    44.6363   -124.532      1/12/2017 21:46    10.59        32.32          1.3     8.84     0.14              2017-01-13T05:46Z  
OC1701A    44.6426   -124.4652     1/12/2017 22:09    10.70        32.37          1.09    7.46     0.13              2017-01-13T06:09Z  
OC1701A    44.6503   -124.2765     1/12/2017 22:55    9.62         31.82          2.26    17.59    0.37              2017-01-13T06:55Z  
OC1701A    44.6522   -124.1287     1/12/2017 23:51    9.46         31.04          2.64    19.77    0.61              2017-01-13T07:51Z  
OC1701A    44.65     -124.1783     1/13/2017 0:37     9.55         30.99          2.15    15.04    0.63              2017-01-13T08:37Z  
OC1701A    44.6474   -124.1775     1/13/2017 1:00     9.17         30.64          2.3     15.43    0.66              2017-01-13T09:00Z  
OC1701A    44.6475   -124.1798     1/13/2017 1:46     9.40         30.98          2.33    15.76    0.59              2017-01-13T09:46Z  
OC1701A    44.6502   -124.2239     1/13/2017 2:40     9.29         31.39          1.75    12.11    0.44              2017-01-13T10:40Z  
OC1701A    44.6501   -124.2276     1/13/2017 3:26     9.31         31.54          1.48    10.74    0.4               2017-01-13T11:26Z  
OC1701A    44.6451   -124.2381     1/13/2017 3:49     9.66         31.96          1.35    10.81    0.33              2017-01-13T11:49Z  
OC1701A    44.6502   -124.2695     1/13/2017 4:35     9.53         31.80          2.24    16.78    0.38              2017-01-13T12:35Z  
OC1701A    44.6592   -124.281      1/13/2017 5:25     9.48         31.74          2.23    15.49    0.39              2017-01-13T13:25Z  
OC1701A    44.6507   -124.3337     1/13/2017 6:11     10.06        32.21          1.76    11.03    0.22              2017-01-13T14:11Z  
OC1701A    44.6507   -124.348      1/13/2017 6:34     10.64        32.42          1.22    5.66     0.1               2017-01-13T14:34Z  
OC1701A    44.6535   -124.3174     1/13/2017 7:20     9.85         32.10          2.05    12.27    0.31              2017-01-13T15:20Z  
OC1701A    44.6525   -124.3363     1/13/2017 8:14     10.28        32.32          1.58    9.22     0.15              2017-01-13T16:14Z  
OC1701A    44.6532   -124.3453     1/13/2017 9:00     10.61        32.42          0.98    4.65     0.08              2017-01-13T17:00Z  
OC1701A    44.65     -124.348      1/13/2017 9:23     10.64        32.42          0.9     4.75     0.09              2017-01-13T17:23Z  
OC1701A    44.651    -124.5102     1/13/2017 11:19    10.58        32.40          0.97    5.67     0.11              2017-01-13T19:19Z  
OC1701A    44.6496   -124.5277     1/13/2017 12:05    9.94         32.23          1.83    10.53    0.3               2017-01-13T20:05Z  
OC1701A    44.6484   -124.5249     1/13/2017 12:28    9.98         32.24          1.91    12.52    0.29              2017-01-13T20:28Z  
OC1701A    44.6506   -124.3468     1/13/2017 13:14    10.63        32.44          1.21    5.39     0.1               2017-01-13T21:14Z  
OC1701A    44.6552   -124.2417     1/13/2017 13:37    8.99         30.97          1.78    11.18    0.55              2017-01-13T21:37Z  
OC1701A    44.6498   -124.1771     1/13/2017 14:12    9.28         31.40          1.97    11.63    0.5               2017-01-13T22:12Z  
OC1701A    44.6475   -124.2771     1/13/2017 14:58    8.83         30.93          1.6     9.63     0.55              2017-01-13T22:58Z  
OC1701A    44.5829   -124.312      1/13/2017 15:21    9.51         32.01          2.2     12.01    0.33              2017-01-13T23:21Z  
OC1701A    44.4379   -124.3071     1/13/2017 16:07    8.74         30.45          1.4     8.38     0.91              2017-01-14T00:07Z  
OC1701A    44.3671   -124.3077     1/13/2017 16:31    8.99         30.54          1.23    7.96     0.88              2017-01-14T00:31Z  
OC1701A    44.2453   -124.3239     1/13/2017 17:10    8.42         28.85          1.28    9.33     1.31              2017-01-14T01:10Z  
OC1701A    44.1049   -124.3423     1/13/2017 17:56    9.40         31.20          1.24    8.75     1.6               2017-01-14T01:56Z  
OC1701A    44.0379   -124.3504     1/13/2017 18:19    9.21         30.27          7.88    49.25    2.33              2017-01-14T02:19Z  
OC1701A    43.9007   -124.3748     1/13/2017 19:06    9.11         30.11          1.37    9.2      3.66              2017-01-14T03:06Z  
OC1701A    43.8369   -124.4197     1/13/2017 19:29    9.45         30.65          1.29    9.26     3.84              2017-01-14T03:29Z  
OC1701A    43.7514   -124.425      1/13/2017 20:06    10.30        32.30          0.74    4.83     1.95              2017-01-14T04:06Z  
OC1701A    43.7494   -124.2412     1/13/2017 20:52    nd           30.11          1.5     9.63     3.2               2017-01-14T04:52Z  
OC1701A    43.749    -124.2405     1/13/2017 21:15    9.92         31.67          1.26    8.93     1.39              2017-01-14T05:15Z  
OC1701A    43.749    -124.2918     1/13/2017 22:01    9.73         30.30          1.62    11.7     1.97              2017-01-14T06:01Z  
OC1701A    43.7501   -124.2841     1/13/2017 22:24    9.65         29.76          1.43    12.94    2.2               2017-01-14T06:24Z  
OC1701A    43.7536   -124.2824     1/13/2017 23:01    9.64         29.80          1.28    12.22    2.16              2017-01-14T07:01Z  
OC1701A    43.7502   -124.3214     1/13/2017 23:47    9.75         30.30          1.24    9.94     1.78              2017-01-14T07:47Z  
OC1701A    43.7538   -124.3247     1/14/2017 0:10     9.77         30.45          1.22    10.19    1.7               2017-01-14T08:10Z  
OC1701A    43.7499   -124.3615     1/14/2017 0:57     9.90         30.90          1.33    8.85     1.36              2017-01-14T08:57Z  
OC1701A    43.7553   -124.3652     1/14/2017 1:20     9.92         31.01          1.18    8.08     1.3               2017-01-14T09:20Z  
OC1701A    43.7569   -124.4031     1/14/2017 3:03     10.25        32.11          nd      4.98     0.47              2017-01-14T11:03Z  
OC1701A    43.7505   -124.482      1/14/2017 3:49     10.26        32.27          0.77    4.42     0.32              2017-01-14T11:49Z  
OC1701A    43.7483   -124.4889     1/14/2017 4:12     10.27        32.30          0.84    4.23     0.29              2017-01-14T12:12Z  
OC1701A    43.7713   -124.4741     1/14/2017 4:58     nd           32.35          0.87    5.51     0.26              2017-01-14T12:58Z  
OC1701A    43.7955   -124.4355     1/14/2017 5:21     10.22        32.30          0.92    5.58     0.32              2017-01-14T13:21Z  
OC1701A    43.8165   -124.3713     1/14/2017 5:46     9.64         30.58          1.18    8.97     1.37              2017-01-14T13:46Z  
OC1701A    43.8168   -124.2547     1/14/2017 6:32     9.90         32.15          0.85    4.83     0.72              2017-01-14T14:32Z  
OC1701A    43.827    -124.3125     1/14/2017 7:41     9.60         31.61          0.87    6.74     0.96              2017-01-14T15:41Z  
OC1701A    43.8175   -124.3334     1/14/2017 8:04     9.61         30.72          1.58    9.26     1.3               2017-01-14T16:04Z  
OC1701A    43.815    -124.4039     1/14/2017 10:34    9.52         30.82          1       6.66     1.31              2017-01-14T18:34Z  
OC1701A    43.7524   -124.479      1/14/2017 11:20    9.69         31.63          0.98    5.78     0.59              2017-01-14T19:20Z  
OC1701A    43.75     -124.4815     1/14/2017 11:43    9.67         31.58          0.97    5.33     0.57              2017-01-14T19:43Z  
OC1701A    43.7533   -124.4218     1/14/2017 12:29    9.89         31.84          1.07    5.47     0.63              2017-01-14T20:29Z  
OC1701A    43.75     -124.3222     1/14/2017 12:52    9.43         30.16          1.4     9.94     1.8               2017-01-14T20:52Z  
OC1701A    43.75     -124.2817     1/14/2017 13:19    9.44         29.99          0.89    8.37     1.73              2017-01-14T21:19Z  
OC1701A    43.7511   -124.3481     1/14/2017 14:05    9.52         30.61          1.09    8.45     1.57              2017-01-14T22:05Z  
OC1701A    43.8156   -124.3943     1/14/2017 14:29    9.45         30.81          0.97    7.56     1.27              2017-01-14T22:29Z  
OC1701A    43.9698   -124.4248     1/14/2017 15:15    10.12        32.32          0.83    4.84     0.41              2017-01-14T23:15Z  
OC1701A    44.0474   -124.4382     1/14/2017 15:38    9.82         31.70          1.22    5.44     0.7               2017-01-14T23:38Z  
OC1701A    44.1277   -124.4476     1/14/2017 16:01    10.46        32.46          2.51    8.69     0.21              2017-01-15T00:01Z  
OC1701A    44.278    -124.4689     1/14/2017 16:47    10.00        32.34          1.44    6.73     0.28              2017-01-15T00:47Z  
OC1701A    44.3539   -124.4853     1/14/2017 17:10    9.59         32.05          1.33    6.33     0.37              2017-01-15T01:10Z  
OC1701A    44.5085   -124.5023     1/14/2017 17:56    8.59         30.71          1.77    11.72    0.64              2017-01-15T01:56Z  
OC1701A    44.5856   -124.4986     1/14/2017 18:19    8.88         31.08          1.31    7.26     0.69              2017-01-15T02:19Z  
OC1701A    44.6449   -124.4986     1/14/2017 19:17    9.71         32.11          1.43    9.45     0.34              2017-01-15T03:17Z  
OC1701A    44.6499   -124.4115     1/14/2017 20:03    9.75         32.15          1.58    10.51    0.32              2017-01-15T04:03Z  
OC1701A    44.6506   -124.3411     1/14/2017 20:27    9.32         31.93          1.62    11.86    0.4               2017-01-15T04:27Z  
OC1701A    44.6492   -124.2005     1/14/2017 21:13    9.56         31.84          1.34    9.21     0.43              2017-01-15T05:13Z  
OC1701A    44.6503   -124.2063     1/14/2017 21:36    9.55         31.84          1.91    11.9     0.43              2017-01-15T05:36Z  
OC1701A    44.6514   -124.2303     1/14/2017 22:21    9.49         31.81          2.06    11.93    0.46              2017-01-15T06:21Z  
OC1701A    44.6504   -124.3639     1/14/2017 23:07    8.84         31.42          nd      13.63    0.53              2017-01-15T07:07Z  
OC1701A    44.6495   -124.3615     1/14/2017 23:30    8.86         31.44          nd      12.06    0.51              2017-01-15T07:30Z  
OC1701A    44.6498   -124.3368     1/15/2017 0:16     8.86         31.44          1.81    12.56    0.51              2017-01-15T08:16Z  
OC1701A    44.6499   -124.3238     1/15/2017 0:39     8.64         31.25          1.42    10.27    0.54              2017-01-15T08:39Z  
OC1701A    44.6497   -124.3013     1/15/2017 1:20     8.58         31.12          1.36    8.55     0.62              2017-01-15T09:20Z  
OC1701A    44.6497   -124.283      1/15/2017 2:06     9.25         31.71          1.48    10.3     0.48              2017-01-15T10:06Z  
OC1701A    44.6496   -124.283      1/15/2017 2:29     9.25         31.72          1.43    9.56     0.47              2017-01-15T10:29Z  
OC1701A    44.6498   -124.3816     1/15/2017 3:15     9.38         31.89          2       13.12    0.39              2017-01-15T11:15Z  
OC1701A    44.6503   -124.459      1/15/2017 3:38     9.84         32.24          1.91    11.38    0.28              2017-01-15T11:38Z  
OC1701A    44.6501   -124.6339     1/15/2017 4:31     9.01         31.38          1.34    9.48     0.57              2017-01-15T12:31Z  
OC1701A    44.628    -124.7785     1/15/2017 5:17     10.22        32.31          nd      12.37    0.26              2017-01-15T13:17Z  
OC1701A    44.5644   -124.8186     1/15/2017 5:40     10.30        32.32          nd      13.11    0.24              2017-01-15T13:40Z  
OC1701A    44.4392   -124.8936     1/15/2017 6:26     10.40        32.36          1.6     10.08    0.22              2017-01-15T14:26Z  
OC1701A    44.3765   -124.9295     1/15/2017 6:49     10.37        32.35          1.59    8.75     0.21              2017-01-15T14:49Z  
OC1701A    44.3619   -124.9379     1/15/2017 9:06     10.37        32.31          nd      1.99     0.14              2017-01-15T17:06Z  
OC1701A    44.3815   -124.7925     1/15/2017 9:52     10.09        32.31          1.13    6.29     0.21              2017-01-15T17:52Z  
OC1701A    44.3949   -124.6935     1/15/2017 10:16    9.70         32.12          1.42    8.73     0.27              2017-01-15T18:16Z  
OC1701A    44.4222   -124.4972     1/15/2017 11:02    9.85         32.24          1.23    6.82     0.24              2017-01-15T19:02Z  
OC1701A    44.4332   -124.4019     1/15/2017 11:25    9.26         31.59          1.28    7.5      0.55              2017-01-15T19:25Z  
OC1701A    44.4331   -124.3131     1/15/2017 11:48    9.29         31.34          1.03    6.15     0.57              2017-01-15T19:48Z  
OC1701A    44.5008   -124.2639     1/15/2017 12:35    8.71         31.05          1.1     6.21     0.63              2017-01-15T20:35Z  
OC1701A    44.5006   -124.3415     1/15/2017 12:58    9.29         31.40          1.12    5.71     0.51              2017-01-15T20:58Z  
OC1701A    44.5666   -124.3903     1/15/2017 13:44    8.90         31.18          1.24    6.67     0.56              2017-01-15T21:44Z  
OC1701A    44.5665   -124.3159     1/15/2017 14:07    9.00         31.33          nd      7.17     0.55              2017-01-15T22:07Z  
OC1701A    44.5858   -124.2491     1/15/2017 14:34    9.15         31.66          0.99    5.69     0.45              2017-01-15T22:34Z  
OC1701A    44.6336   -124.3431     1/15/2017 15:20    8.98         31.31          1.32    6.92     0.56              2017-01-15T23:20Z  
OC1701A    44.6493   -124.3999     1/15/2017 15:43    nd           31.47          1.69    9.16     0.5               2017-01-15T23:43Z  
OC1701A    44.6506   -124.3416     1/15/2017 16:30    8.83         31.22          1.16    7.05     0.58              2017-01-16T00:30Z  
OC1701A    44.6536   -124.3394     1/15/2017 16:53    nd           31.26          1.23    7.76     0.58              2017-01-16T00:53Z  
OC1701A    44.6543   -124.2507     1/15/2017 19:51    9.14         31.63          1.49    8.74     0.52              2017-01-16T03:51Z  
OC1701A    44.6382   -124.3086     1/15/2017 20:37    8.98         31.28          1.6     8.44     0.6               2017-01-16T04:37Z  
OC1701A    44.638    -124.311      1/15/2017 21:00    9.01         31.39          1.61    10.31    0.57              2017-01-16T05:00Z  
OC1701A    44.6454   -124.2909     1/15/2017 21:11    8.86         31.13          1.36    9.27     0.63              2017-01-16T05:11Z  
OC1701A    44.6416   -124.2748     1/15/2017 21:15    9.12         31.43          1.49    10.07    0.56              2017-01-16T05:15Z  
OC1611B    44.6489   -124.1156     12/6/2016 20:27    12.34        30.71          0.73    6.46     2.09              2016-12-07T04:27Z  
OC1611B    44.6505   -124.1644     12/6/2016 20:53    12.20        30.87          0.66    5.97     2.00              2016-12-07T04:53Z  
OC1611B    44.651    -124.1896     12/6/2016 21:06    12.38        31.05          1.55    11.57    1.98              2016-12-07T05:06Z  
OC1611B    44.6513   -124.3066     12/6/2016 23:00    12.59        31.66          0.74    6.52     0.27              2016-12-07T07:00Z  
OC1611B    44.6514   -124.3586     12/6/2016 23:26    12.77        31.81          0.65    5.71     0.22              2016-12-07T07:26Z  
OC1611B    44.6511   -124.3844     12/6/2016 23:39    12.80        31.95          0.63    5.86     0.21              2016-12-07T07:39Z  
OC1611B    44.6508   -124.4362     12/7/2016 0:05     13.05        32.11          1.2     9.52     0.20              2016-12-07T08:05Z  
OC1611B    44.6494   -124.5014     12/7/2016 0:38     12.94        32.50          0.51    3.66     0.19              2016-12-07T08:38Z  
OC1611B    44.6499   -124.5544     12/7/2016 1:04     12.90        32.49          0.66    4.15     0.20              2016-12-07T09:04Z  
OC1611B    44.6504   -124.5809     12/7/2016 1:17     12.96        32.50          0.52    3.44     0.18              2016-12-07T09:17Z  
OC1611B    44.6501   -124.6327     12/7/2016 1:43     12.95        32.51          0.51    3.37     0.14              2016-12-07T09:43Z  
OC1611B    44.6519   -124.647      12/7/2016 3:05     12.93        32.46          0.46    2.97     0.14              2016-12-07T11:05Z  
OC1611B    44.6533   -124.59       12/7/2016 3:51     12.90        32.49          0.47    3.09     0.18              2016-12-07T11:51Z  
OC1611B    44.6473   -124.5302     12/7/2016 4:15     12.90        32.50          0.53    3.45     0.17              2016-12-07T12:15Z  
OC1611B    44.6513   -124.5297     12/7/2016 5:24     12.92        32.48          0.54    3.51     0.16              2016-12-07T13:24Z  
OC1611B    44.6486   -124.5185     12/7/2016 5:49     12.91        32.50          0.52    3.08     0.16              2016-12-07T13:49Z  
OC1611B    44.6485   -124.4059     12/7/2016 6:35     12.64        31.74          0.51    3.79     0.17              2016-12-07T14:35Z  
OC1611B    44.6514   -124.4058     12/7/2016 6:58     12.61        31.75          0.47    3.11     0.17              2016-12-07T14:58Z  
OC1611B    44.6551   -124.3663     12/7/2016 7:44     12.74        31.92          0.66    3.98     0.16              2016-12-07T15:44Z  
OC1611B    44.6498   -124.2955     12/7/2016 8:36     12.50        31.85          0.46    3.21     0.20              2016-12-07T16:36Z  
OC1611B    44.6521   -124.2985     12/7/2016 9:23     12.41        31.82          0.81    5.07     0.21              2016-12-07T17:23Z  
OC1611B    44.6533   -124.2751     12/7/2016 9:46     12.21        31.60          0.48    3.26     0.24              2016-12-07T17:46Z  
OC1611B    44.6483   -124.228      12/7/2016 10:32    12.09        31.19          0.54    3.97     0.34              2016-12-07T18:32Z  
OC1611B    44.6534   -124.234      12/7/2016 11:23    12.11        31.23          0.43    3.76     0.33              2016-12-07T19:23Z  
OC1611B    44.6501   -124.1784     12/7/2016 12:09    12.12        31.35          1.16    9.02     0.23              2016-12-07T20:09Z  
OC1611B    44.6499   -124.1766     12/7/2016 12:32    12.14        31.36          0.69    4.44     0.23              2016-12-07T20:32Z  
OC1611B    44.6498   -124.1515     12/7/2016 13:19    11.80        30.77          0.48    4.15     0.35              2016-12-07T21:19Z  
OC1611B    44.6501   -124.119      12/7/2016 14:36    12.14        30.94          0.66    3.87     0.22              2016-12-07T22:36Z  
OC1611B    44.65     -124.1827     12/7/2016 15:22    12.16        31.43          0.59    3.65     0.21              2016-12-07T23:22Z  
OC1611B    44.651    -124.1734     12/7/2016 15:45    12.08        31.25          0.65    4        0.23              2016-12-07T23:45Z  
OC1611B    44.6577   -124.1524     12/7/2016 16:31    11.91        30.90          0.72    4.75     0.29              2016-12-08T00:31Z  
OC1611B    44.6524   -124.1308     12/7/2016 17:19    12.22        31.12          0.75    4.59     0.19              2016-12-08T01:19Z  
OC1611B    44.651    -124.1513     12/7/2016 18:05    12.11        31.02          0.79    4.86     0.26              2016-12-08T02:05Z  
OC1611B    44.6515   -124.1845     12/7/2016 18:28    12.15        31.34          0.62    6.66     0.20              2016-12-08T02:28Z  
OC1611B    44.6494   -124.159      12/7/2016 19:15    12.01        30.93          0.77    5.76     0.27              2016-12-08T03:15Z  
OC1611B    44.6513   -124.1151     12/7/2016 20:34    12.30        31.13          0.68    4.91     0.24              2016-12-08T04:34Z  
OC1611B    44.6418   -124.1244     12/7/2016 21:20    12.32        31.16          0.81    5.32     0.21              2016-12-08T05:20Z  
OC1611B    44.646    -124.1284     12/7/2016 21:43    12.33        31.17          1.22    6.98     0.21              2016-12-08T05:43Z  
OC1603B    44.65     -124.1002     3/11/2016 9:49     11.96        30.58          1.54    10.04    1.26              2016-03-11T17:49Z  
OC1603B    44.6499   -124.1527     3/11/2016 10:40    11.86        29.79          2.38    19.43    1.47              2016-03-11T18:40Z  
OC1603B    44.6503   -124.3399     3/11/2016 11:29    11.62        32.43          0.41    3.78     0.3               2016-03-11T19:29Z  
OC1603B    44.6491   -124.4099     3/11/2016 12:07    11.62        32.43          0.51    3.63     0.21              2016-03-11T20:07Z  
OC1603B    44.6446   -124.4067     3/11/2016 12:36    11.62        32.42          0.42    3.19     0.21              2016-03-11T20:36Z  
OC1603B    44.6501   -124.389      3/11/2016 13:26    11.61        32.41          nd      nd       0.22              2016-03-11T21:26Z  
OC1603B    44.6485   -124.2936     3/11/2016 14:39    11.63        32.42          0.85    5.91     0.31              2016-03-11T22:39Z  
OC1603B    44.6475   -124.2929     3/11/2016 15:05    11.64        32.41          0.87    5.5      0.32              2016-03-11T23:05Z  
OC1603B    44.6504   -124.2088     3/11/2016 15:55    11.98        31.82          0.77    5.88     0.33              2016-03-11T23:55Z  
OC1603B    44.6481   -124.1762     3/11/2016 16:45    12.04        31.67          0.8     4.54     0.37              2016-03-12T00:45Z  
OC1603B    44.6438   -124.1731     3/11/2016 17:36    12.02        31.71          0.52    3.78     0.35              2016-03-12T01:36Z  
OC1603B    44.6497   -124.112      3/11/2016 18:12    12.01        30.24          1.18    7.51     1.16              2016-03-12T02:12Z  
OC1603B    43.7509   -124.241      3/14/2016 19:26    12.02        30.85          1.12    12.35    1.35              2016-03-15T02:26Z  
OC1603B    43.7425   -124.4165     3/14/2016 20:16    12.11        32.24          0.77    9.05     0.35              2016-03-15T03:16Z  
OC1603B    43.7493   -124.6368     3/14/2016 21:11    11.68        32.46          0.56    3.94     0.18              2016-03-15T04:11Z  
OC1603B    43.7517   -124.4829     3/15/2016 0:11     12.10        32.22          0.09    1.47     0.33              2016-03-15T07:11Z  
OC1603B    43.7558   -124.4979     3/15/2016 1:02     12.08        32.24          nd      3.52     0.42              2016-03-15T08:02Z  
OC1603B    43.7501   -124.4095     3/15/2016 1:52     12.07        32.27          nd      2.98     0.32              2016-03-15T08:52Z  
OC1603B    43.7502   -124.382      3/15/2016 2:42     12.09        32.20          0.74    4.27     0.35              2016-03-15T09:42Z  
OC1603B    43.75     -124.3819     3/15/2016 3:12     12.09        32.20          0.53    3.46     0.35              2016-03-15T10:12Z  
OC1603B    43.7482   -124.3348     3/15/2016 4:02     12.08        32.24          0.57    3.52     0.49              2016-03-15T11:02Z  
OC1603B    43.7583   -124.291      3/15/2016 4:53     12.10        31.94          0.59    3.82     0.61              2016-03-15T11:53Z  
OC1603B    43.7545   -124.2472     3/15/2016 5:43     11.89        30.16          0.69    4.4      2.02              2016-03-15T12:43Z  
OC1603B    43.8121   -124.2319     3/15/2016 7:31     11.72        28.48          1.16    11.29    2.74              2016-03-15T14:31Z  
OC1603B    43.81     -124.2733     3/15/2016 8:21     12.05        31.08          0.95    9.88     1.32              2016-03-15T15:21Z  
OC1603B    43.8438   -124.2349     3/15/2016 9:11     11.76        28.76          1.15    8.15     2.35              2016-03-15T16:11Z  
OC1603B    43.8636   -124.1894     3/15/2016 10:02    11.55        26.27          nd      8.14     3.05              2016-03-15T17:02Z  
OC1603B    43.8658   -124.2453     3/15/2016 10:30    11.82        29.12          nd      12.26    2.1               2016-03-15T17:30Z  
OC1603B    43.868    -124.2668     3/15/2016 11:20    12.10        31.08          1.57    13.98    1.23              2016-03-15T18:20Z  
OC1603B    43.9313   -124.2665     3/15/2016 12:10    12.09        31.74          1.12    8.12     0.65              2016-03-15T19:10Z  
OC1603B    44.0084   -124.265      3/15/2016 13:01    12.23        31.41          1.04    7.97     0.78              2016-03-15T20:01Z  
OC1603B    44.0812   -124.2015     3/15/2016 13:28    12.06        29.73          0.83    5.76     1.27              2016-03-15T20:28Z  
OC1603B    44.1601   -124.1628     3/15/2016 14:18    11.75        26.34          0.83    6.17     2.25              2016-03-15T21:18Z  
OC1603B    44.2756   -124.2372     3/15/2016 15:09    12.13        31.39          2.21    16.66    0.69              2016-03-15T22:09Z  
OC1603B    44.3836   -124.1555     3/15/2016 15:59    12.02        30.37          1.08    7.78     1.04              2016-03-15T22:59Z  
OC1603B    44.4303   -124.1098     3/15/2016 16:32    11.70        27.66          0.84    6.18     2.29              2016-03-15T23:32Z  
OC1603B    44.5849   -124.1453     3/15/2016 17:22    11.90        29.90          nd      17.72    1.17              2016-03-16T00:22Z  
OC1603B    44.5673   -124.1919     3/15/2016 18:12    12.01        31.20          1.9     14.9     0.61              2016-03-16T01:12Z  
OC1603B    44.6502   -124.1003     3/15/2016 19:03    11.84        29.65          1.15    7.77     1.22              2016-03-16T02:03Z  
OC1603B    44.6473   -124.2818     3/15/2016 19:57    11.67        32.27          1.6     10.25    0.27              2016-03-16T02:57Z  
OC1603B    44.6498   -124.5008     3/15/2016 20:47    11.73        32.31          0.5     3.18     0.24              2016-03-16T03:47Z  
OC1603B    44.65     -124.6438     3/15/2016 21:37    11.34        32.44          0.4     2.65     0.41              2016-03-16T04:37Z  
OC1603B    44.6508   -124.5761     3/15/2016 22:28    11.81        32.36          1.31    10.6     0.27              2016-03-16T05:28Z  
OC1603B    44.6499   -124.4431     3/15/2016 22:59    11.71        32.33          1.76    12.82    0.24              2016-03-16T05:59Z  
OC1603B    44.6506   -124.3894     3/15/2016 23:49    11.70        32.32          0.51    3.56     0.22              2016-03-16T06:49Z  
OC1603B    44.6505   -124.3034     3/16/2016 0:40     11.67        32.29          nd      3.54     0.2               2016-03-16T07:40Z  
OC1603B    44.65     -124.2745     3/16/2016 1:30     11.66        32.27          nd      2.51     0.2               2016-03-16T08:30Z  
OC1603B    44.6505   -124.2202     3/16/2016 2:20     11.99        31.58          0.43    2.67     0.37              2016-03-16T09:20Z  
OC1603B    44.6502   -124.1792     3/16/2016 3:10     11.99        31.35          0.68    4        0.47              2016-03-16T10:10Z  
OC1603B    44.6509   -124.1479     3/16/2016 4:01     11.81        29.91          0.87    5.11     0.97              2016-03-16T11:01Z  
OC1603B    44.65     -124.1301     3/16/2016 4:51     11.78        29.61          2.28    11.15    1.08              2016-03-16T11:51Z  
OC1603B    44.6564   -124.1453     3/16/2016 5:17     11.97        31.07          1.38    9.78     0.59              2016-03-16T12:17Z  
OC1603B    44.6486   -124.1275     3/16/2016 6:08     11.84        30.10          3.19    17.28    0.99              2016-03-16T13:08Z  
OC1603B    44.6514   -124.2052     3/16/2016 6:58     12.00        31.63          1.28    10.38    0.34              2016-03-16T13:58Z  
OC1603B    44.7903   -124.2278     3/16/2016 7:49     11.65        32.25          0.5     3.26     0.21              2016-03-16T14:49Z  
OC1603B    44.9053   -124.2494     3/16/2016 8:27     11.73        32.35          nd      3.54     0.24              2016-03-16T15:27Z  
OC1603B    45.0734   -124.2901     3/16/2016 9:18     11.68        32.36          0.49    3.24     0.25              2016-03-16T16:18Z  
OC1603B    45.0736   -124.211      3/16/2016 10:08    11.66        32.28          0.45    3.13     0.21              2016-03-16T17:08Z  
OC1603B    45.0431   -124.0767     3/16/2016 10:58    11.89        30.04          0.58    3.88     0.82              2016-03-16T17:58Z  
OC1603B    45.0494   -124.0765     3/16/2016 11:25    11.94        29.89          0.56    3.99     0.88              2016-03-16T18:25Z  
OC1603B    45.0457   -124.0315     3/16/2016 12:15    11.83        29.95          1.46    10.45    1.26              2016-03-16T19:15Z  
OC1603B    44.96     -124.0832     3/16/2016 13:06    11.97        29.46          1.38    11.02    1.2               2016-03-16T20:06Z  
OC1603B    44.9317   -124.1945     3/16/2016 13:56    11.86        32.30          1.58    12.5     0.29              2016-03-16T20:56Z  
OC1603B    44.9326   -124.0878     3/16/2016 15:17    11.97        29.58          0.56    4.92     1.12              2016-03-16T22:17Z  
OC1603B    44.9096   -124.0723     3/16/2016 16:07    11.96        29.47          nd      11.16    1.28              2016-03-16T23:07Z  
OC1603B    44.771    -124.1063     3/16/2016 16:58    12.06        29.64          1.54    11.7     1.22              2016-03-16T23:58Z  
OC1602A    44.6459   -124.1025     2/15/2016 12:21    11.89        29.53          3.27    24.05    1.81              2016-02-15T20:21Z  
OC1602A    44.6498   -124.0999     2/15/2016 13:12    11.91        29.34          3.8     26.99    1.97              2016-02-15T21:12Z  
OC1602A    44.6499   -124.1002     2/15/2016 14:02    11.91        29.00          2.8     24.62    1.91              2016-02-15T22:02Z  
OC1602A    44.6501   -124.0999     2/15/2016 14:52    11.93        28.68          2.97    24.87    1.89              2016-02-15T22:52Z  
OC1602A    44.651    -124.1677     2/15/2016 15:10    11.86        31.09          2.22    16.31    0.65              2016-02-15T23:10Z  
OC1602A    44.6511   -124.3142     2/15/2016 15:47    11.61        32.29          1.13    8.23     0.29              2016-02-15T23:47Z  
OC1602A    44.6496   -124.4576     2/15/2016 16:22    11.77        32.43          0.56    3.36     0.2               2016-02-16T00:22Z  
OC1602A    44.6516   -124.6029     2/15/2016 16:58    11.68        32.40          0.65    4.13     0.24              2016-02-16T00:58Z  
OC1602A    44.6509   -124.8554     2/15/2016 17:59    11.62        32.30          0.48    2.85     0.22              2016-02-16T01:59Z  
OC1602A    44.65     -125.0004     2/15/2016 18:49    11.57        32.44          0.43    3.13     0.19              2016-02-16T02:49Z  
OC1602A    44.6471   -125.0016     2/15/2016 19:40    11.62        32.44          0.62    3.64     0.18              2016-02-16T03:40Z  
OC1602A    44.6458   -125.0027     2/15/2016 20:30    11.62        32.44          0.4     2.84     0.17              2016-02-16T04:30Z  
OC1602A    44.6425   -124.9883     2/15/2016 20:59    11.62        32.44          0.42    2.73     0.18              2016-02-16T04:59Z  
OC1602A    44.6496   -124.7796     2/15/2016 21:50    11.59        32.17          0.42    2.69     0.21              2016-02-16T05:50Z  
OC1602A    44.6499   -124.6501     2/15/2016 22:40    11.66        32.40          0.58    3.44     0.23              2016-02-16T06:40Z  
OC1602A    44.6492   -124.6499     2/15/2016 23:30    11.66        32.40          0.8     4.31     0.24              2016-02-16T07:30Z  
OC1602A    44.6469   -124.6058     2/16/2016 0:10     11.68        32.39          0.55    3.32     0.26              2016-02-16T08:10Z  
OC1602A    44.6511   -124.4114     2/16/2016 1:00     11.75        32.44          0.51    2.69     0.17              2016-02-16T09:00Z  
OC1602A    44.6472   -124.4125     2/16/2016 1:51     11.77        32.44          0.47    2.63     0.15              2016-02-16T09:51Z  
OC1602A    44.6502   -124.4115     2/16/2016 2:41     11.78        32.44          0.62    3.56     0.15              2016-02-16T10:41Z  
OC1602A    44.652    -124.4035     2/16/2016 3:20     11.76        32.44          0.52    2.94     0.16              2016-02-16T11:20Z  
OC1602A    44.6505   -124.2954     2/16/2016 4:10     11.57        32.16          1.46    7.37     0.3               2016-02-16T12:10Z  
OC1602A    44.6483   -124.3034     2/16/2016 5:00     11.57        32.21          1.02    6.51     0.31              2016-02-16T13:00Z  
OC1602A    44.6501   -124.1782     2/16/2016 5:51     11.64        31.93          1.1     6.49     0.39              2016-02-16T13:51Z  
OC1602A    44.65     -124.1001     2/16/2016 6:46     11.77        30.71          1.35    8.43     0.9               2016-02-16T14:46Z  
OC1602A    44.6493   -124.1203     2/16/2016 7:36     11.78        30.75          1.43    9.09     0.95              2016-02-16T15:36Z  
OC1602A    44.6496   -124.1294     2/16/2016 8:26     11.77        30.67          1.57    9.39     1                 2016-02-16T16:26Z  
OC1602A    44.6454   -124.18       2/16/2016 9:17     11.63        32.13          1.43    8.35     0.42              2016-02-16T17:17Z  
OC1602A    44.5583   -124.1851     2/16/2016 10:04    11.71        31.87          1.87    10.27    0.5               2016-02-16T18:04Z  
OC1602A    44.4234   -124.1143     2/16/2016 10:55    11.81        28.21          nd      nd       1.87              2016-02-16T18:55Z  
OC1602A    44.2932   -124.2269     2/16/2016 11:45    11.74        32.01          0.75    6.62     0.61              2016-02-16T19:45Z  
OC1602A    44.2693   -124.2364     2/16/2016 12:35    11.75        32.15          nd      nd       0.53              2016-02-16T20:35Z  
OC1602A    44.2778   -124.2376     2/16/2016 13:05    11.79        32.13          1.12    7.63     0.43              2016-02-16T21:05Z  
OC1602A    44.1574   -124.1658     2/16/2016 13:55    11.97        30.45          1.89    14.39    0.9               2016-02-16T21:55Z  
OC1602A    44.139    -124.1515     2/16/2016 14:45    12.13        30.17          2.36    18.72    1.14              2016-02-16T22:45Z  
OC1602A    44.0506   -124.2313     2/16/2016 15:36    12.02        30.82          1.84    13.74    0.62              2016-02-16T23:36Z  
OC1602A    43.9901   -124.2652     2/16/2016 16:41    11.77        32.27          1.11    9.12     0.36              2016-02-17T00:41Z  
OC1602A    43.9204   -124.2252     2/16/2016 17:31    11.98        30.73          1.31    9        0.44              2016-02-17T01:31Z  
OC1602A    43.8644   -124.192      2/16/2016 18:22    11.90        30.83          1.25    7.9      0.39              2016-02-17T02:22Z  
OC1602A    43.7505   -124.2022     2/16/2016 19:12    11.93        30.27          1.69    13.08    1.14              2016-02-17T03:12Z  
OC1602A    43.7501   -124.2317     2/16/2016 19:44    11.91        29.72          1.94    14.03    0.98              2016-02-17T03:44Z  
OC1602A    43.751    -124.4415     2/16/2016 20:34    11.74        32.11          2.33    18.37    0.46              2016-02-17T04:34Z  
OC1602A    43.7499   -124.5815     2/16/2016 21:24    11.77        32.21          1.71    11.33    0.34              2016-02-17T05:24Z  
OC1602A    43.7481   -124.5717     2/16/2016 22:14    11.80        32.25          1.25    10.01    0.31              2016-02-17T06:14Z  
OC1602A    43.7497   -124.5325     2/16/2016 22:42    11.82        32.33          0.91    5.66     0.3               2016-02-17T06:42Z  
OC1602A    43.7517   -124.4804     2/16/2016 23:33    11.69        32.15          1.9     12.69    0.35              2016-02-17T07:33Z  
OC1602A    43.7531   -124.4184     2/17/2016 0:23     11.65        32.11          2.29    13.73    0.46              2016-02-17T08:23Z  
OC1602A    43.7496   -124.3819     2/17/2016 1:13     11.72        32.21          1.49    9.17     0.34              2016-02-17T09:13Z  
OC1602A    43.7464   -124.373      2/17/2016 1:51     11.70        32.18          1.54    9.45     0.42              2016-02-17T09:51Z  
OC1602A    43.7501   -124.2822     2/17/2016 2:41     11.87        30.59          1.08    6.95     0.45              2016-02-17T10:41Z  
OC1602A    43.7439   -124.2842     2/17/2016 3:32     11.89        31.28          1.03    6.52     0.31              2016-02-17T11:32Z  
OC1602A    43.7503   -124.2415     2/17/2016 4:22     11.84        30.57          1.33    9.11     1.03              2016-02-17T12:22Z  
OC1601A    44.65424  -124.88478    1/22/2016 17:28    11.28        32.44          0.11    1.3      0.15              2016-01-23T01:28Z  
OC1601A    44.6495   -124.89066    1/22/2016 17:57    11.29        32.44          0.25    1.65     0.14              2016-01-23T01:57Z  
OC1601A    44.58553  -124.89039    1/22/2016 19:54    11.36        32.43          0.19    1.67     0.14              2016-01-23T03:54Z  
OC1601A    44.58724  -124.8716     1/22/2016 20:22    11.38        32.42          0.28    2.03     0.14              2016-01-23T04:22Z  
OC1601A    44.63511  -124.79297    1/22/2016 20:50    11.46        32.37          0.33    2.12     0.13              2016-01-23T04:50Z  
OC1601A    44.64997  -124.76675    1/22/2016 21:18    11.48        32.34          0.2     1.37     0.13              2016-01-23T05:18Z  
OC1601A    44.65037  -124.76644    1/22/2016 21:46    11.47        32.34          0.2     1.19     0.12              2016-01-23T05:46Z  
OC1601A    44.65298  -124.74538    1/22/2016 22:14    11.46        32.33          0.2     1.54     0.12              2016-01-23T06:14Z  
OC1601A    44.65071  -124.65543    1/22/2016 22:42    11.45        32.33          0.27    2.22     0.13              2016-01-23T06:42Z  
OC1601A    44.64994  -124.65004    1/22/2016 23:14    11.42        32.31          0.11    1.17     0.13              2016-01-23T07:14Z  
OC1601A    44.65024  -124.64973    1/22/2016 23:42    11.44        32.33          0.3     1.84     0.13              2016-01-23T07:42Z  
OC1601A    44.65177  -124.63853    1/23/2016 0:11     11.44        32.34          0.2     1.47     0.13              2016-01-23T08:11Z  
OC1601A    44.64989  -124.52828    1/23/2016 1:07     11.53        32.41          0.39    1.71     0.15              2016-01-23T09:07Z  
OC1601A    44.65199  -124.52845    1/23/2016 1:35     11.54        32.41          0.24    1.61     0.15              2016-01-23T09:35Z  
OC1601A    44.65022  -124.43375    1/23/2016 2:03     11.65        32.40          0.32    1.88     0.14              2016-01-23T10:03Z  
OC1601A    44.65025  -124.41237    1/23/2016 2:38     11.63        32.37          0.14    0.8      0.13              2016-01-23T10:38Z  
OC1601A    44.65057  -124.40269    1/23/2016 3:06     11.63        32.37          0.21    1.39     0.14              2016-01-23T11:06Z  
OC1601A    44.65079  -124.33197    1/23/2016 3:34     11.61        32.36          0.36    2.49     0.17              2016-01-23T11:34Z  
OC1601A    44.64257  -124.28986    1/23/2016 4:02     11.55        32.30          0.22    1.84     0.16              2016-01-23T12:02Z  
OC1601A    44.64655  -124.29224    1/23/2016 4:30     11.57        32.32          0.24    1.73     0.17              2016-01-23T12:30Z  
OC1601A    44.65056  -124.29558    1/23/2016 4:58     11.57        32.31          0.23    1.68     0.17              2016-01-23T12:58Z  
OC1601A    44.65084  -124.24838    1/23/2016 5:26     11.48        32.07          0.22    1.79     0.26              2016-01-23T13:26Z  
OC1601A    44.65035  -124.17668    1/23/2016 6:21     11.18        30.90          0.43    3.02     0.66              2016-01-23T14:21Z  
OC1601A    44.65096  -124.1772     1/23/2016 6:49     11.19        30.90          0.73    4.28     0.67              2016-01-23T14:49Z  
OC1601A    44.65087  -124.16761    1/23/2016 7:18     11.16        30.19          0.7     4.56     1.08              2016-01-23T15:18Z  
OC1601A    44.64669  -124.12382    1/23/2016 7:46     11.12        27.65          1.03    11.18    2.84              2016-01-23T15:46Z  
OC1601A    44.60373  -124.15501    1/23/2016 8:14     11.13        29.34          1.23    12.1     1.78              2016-01-23T16:14Z  
OC1601A    44.55908  -124.20723    1/23/2016 8:42     11.27        31.39          0.75    7.45     0.53              2016-01-23T16:42Z  
OC1601A    44.5056   -124.26864    1/23/2016 9:03     11.58        32.26          0.64    3.93     0.17              2016-01-23T17:03Z  
OC1601A    44.44445  -124.27707    1/23/2016 9:18     11.53        32.24          0.2     1.31     0.17              2016-01-23T17:18Z  
OC1601A    44.32822  -124.29135    1/23/2016 9:51     11.40        32.07          0.15    1.8      0.27              2016-01-23T17:51Z  
OC1601A    44.18252  -124.3109     1/23/2016 10:41    11.40        32.05          0.49    3.24     0.32              2016-01-23T18:41Z  
OC1601A    44.06392  -124.32321    1/23/2016 11:32    11.43        31.92          0.52    3.07     0.38              2016-01-23T19:32Z  
OC1601A    43.93747  -124.33321    1/23/2016 12:22    11.45        31.65          0.52    3.64     0.51              2016-01-23T20:22Z  
OC1601A    43.83755  -124.34803    1/23/2016 12:48    11.54        31.74          0.41    2.73     0.56              2016-01-23T20:48Z  
OC1601A    43.69442  -124.30129    1/23/2016 13:38    11.51        30.46          0.75    5.51     1.14              2016-01-23T21:38Z  
OC1601A    43.58446  -124.31261    1/23/2016 14:28    11.63        31.26          0.92    6.43     0.75              2016-01-23T22:28Z  
OC1601A    43.50032  -124.2803     1/23/2016 15:19    11.41        29.80          1.16    9.6      1.63              2016-01-23T23:19Z  
OC1601A    43.49995  -124.28381    1/23/2016 15:58    11.44        29.86          0.9     8.26     1.61              2016-01-23T23:58Z  
OC1601A    43.50076  -124.3144     1/23/2016 16:48    11.48        30.14          0.83    7.05     1.43              2016-01-24T00:48Z  
OC1601A    43.50143  -124.32432    1/23/2016 17:38    11.48        30.24          0.71    6.3      1.32              2016-01-24T01:38Z  
OC1601A    43.50113  -124.36862    1/23/2016 19:04    11.51        30.78          0.52    4.76     0.91              2016-01-24T03:04Z  
OC1601A    43.50633  -124.37821    1/23/2016 19:54    11.51        30.89          0.74    5.2      0.85              2016-01-24T03:54Z  
OC1601A    43.5008   -124.41308    1/23/2016 20:45    11.55        31.43          0.44    3.07     0.58              2016-01-24T04:45Z  
OC1601A    43.49992  -124.44283    1/23/2016 21:35    11.71        32.21          0.64    4.08     0.33              2016-01-24T05:35Z  
OC1601A    43.50047  -124.46225    1/23/2016 22:27    11.79        32.46          0.26    1.1      0.25              2016-01-24T06:27Z  
OC1601A    43.50616  -124.48038    1/23/2016 23:17    11.80        32.46          0.34    2.43     0.24              2016-01-24T07:17Z  
OC1601A    43.50071  -124.52768    1/24/2016 0:07     11.77        32.45          0.3     2.4      0.24              2016-01-24T08:07Z  
OC1601A    43.50386  -124.5762     1/24/2016 0:57     11.81        32.47          0.39    2.53     0.24              2016-01-24T08:57Z  
OC1601A    43.50102  -124.6343     1/24/2016 1:33     12.04        32.64          0.52    3.13     0.17              2016-01-24T09:33Z  
OC1601A    43.49995  -124.64708    1/24/2016 2:24     12.08        32.67          0.3     1.87     0.16              2016-01-24T10:24Z  
OC1601A    43.49702  -124.66868    1/24/2016 3:14     12.11        32.68          0.3     1.91     0.16              2016-01-24T11:14Z  
OC1601A    43.49995  -124.7146     1/24/2016 4:04     12.16        32.69          0.4     1.75     0.16              2016-01-24T12:04Z  
OC1601A    43.5002   -124.45721    1/24/2016 5:40     11.56        31.59          0.35    2.09     0.59              2016-01-24T13:40Z  
OC1601A    43.5004   -124.42319    1/24/2016 6:30     11.46        31.30          0.69    5.18     0.73              2016-01-24T14:30Z  
OC1601A    43.50194  -124.47049    1/24/2016 7:21     11.75        32.47          0.46    2.47     0.22              2016-01-24T15:21Z  
OC1601A    43.50038  -124.51398    1/24/2016 8:11     11.75        32.46          0.44    2.89     0.22              2016-01-24T16:11Z  
OC1601A    43.50001  -124.55566    1/24/2016 8:45     11.76        32.47          0.34    2.14     0.23              2016-01-24T16:45Z  
OC1601A    43.51482  -124.50989    1/24/2016 9:36     11.77        32.47          0.31    2.04     0.23              2016-01-24T17:36Z  
OC1601A    43.61213  -124.43194    1/24/2016 10:26    11.53        31.81          0.32    2        0.47              2016-01-24T18:26Z  
OC1601A    43.77536  -124.37175    1/24/2016 11:16    11.35        30.49          0.48    3.93     0.93              2016-01-24T19:16Z  
OC1601A    43.94836  -124.33302    1/24/2016 12:52    11.39        31.65          0.62    4.86     0.50              2016-01-24T20:52Z  
OC1601A    44.06402  -124.3103     1/24/2016 13:42    11.39        31.95          0.67    3.76     0.34              2016-01-24T21:42Z  
OC1601A    44.15785  -124.31332    1/24/2016 14:32    11.43        32.17          0.33    2.18     0.23              2016-01-24T22:32Z  
OC1601A    44.1902   -124.30662    1/24/2016 15:23    11.41        32.15          0.38    3.06     0.22              2016-01-24T23:23Z  
OC1601A    44.33184  -124.29526    1/24/2016 15:59    11.35        32.06          0.36    1.87     0.23              2016-01-24T23:59Z  
OC1601A    44.45796  -124.28004    1/24/2016 16:50    11.44        32.20          0.33    2.65     0.19              2016-01-25T00:50Z  
OC1601A    44.51417  -124.2607     1/24/2016 17:40    11.51        32.29          0.26    2.29     0.17              2016-01-25T01:40Z  
OC1601A    44.56248  -124.2203     1/24/2016 18:30    11.36        32.02          0.26    2.94     0.24              2016-01-25T02:30Z  
OC1601A    44.63076  -124.15481    1/24/2016 19:01    11.10        29.02          0.35    2.45     1.63              2016-01-25T03:01Z  
OC1601A    44.65164  -124.14963    1/24/2016 19:52    11.08        28.14          1.29    10.73    2.03              2016-01-25T03:52Z  
OC1601A    44.65221  -124.17434    1/24/2016 20:42    11.07        29.39          1.07    10.19    1.40              2016-01-25T04:42Z  
OC1601A    44.65088  -124.20269    1/24/2016 21:32    11.27        31.70          0.96    5.62     0.39              2016-01-25T05:32Z  
OC1601A    44.65023  -124.22439    1/24/2016 22:19    11.45        32.27          0.24    1.86     0.18              2016-01-25T06:19Z  
OC1601A    44.74514  -124.19403    1/24/2016 23:09    11.28        31.85          0.31    1.98     0.30              2016-01-25T07:09Z  
OC1601A    44.8878   -124.14126    1/24/2016 23:59    11.01        29.62          0.49    2.89     1.34              2016-01-25T07:59Z  
OC1601A    45.01128  -124.11408    1/25/2016 0:50     11.04        30.12          1.58    9.64     0.97              2016-01-25T08:50Z  
OC1601A    45.26123  -124.08951    1/25/2016 2:21     11.09        30.66          0.56    3.79     0.68              2016-01-25T10:21Z  
OC1601A    45.41207  -124.07391    1/25/2016 3:12     10.98        29.57          0.61    5.28     0.99              2016-01-25T11:12Z  
OC1601A    45.54854  -124.10213    1/25/2016 4:02     11.16        31.47          0.38    2.58     0.41              2016-01-25T12:02Z  
OC1601A    45.66072  -124.02727    1/25/2016 4:52     10.91        29.79          0.46    3.41     0.78              2016-01-25T12:52Z  
OC1601A    45.73477  -124.39109    1/25/2016 9:29     11.43        32.32          0.33    1.97     0.57              2016-01-25T17:29Z  
OC1601A    45.73813  -124.43165    1/25/2016 10:20    11.41        32.37          0.28    1.57     0.12              2016-01-25T18:20Z  
OC1601A    45.73821  -124.50925    1/25/2016 11:10    11.42        32.38          0.23    1.78     0.11              2016-01-25T19:10Z  
OC1601A    45.72963  -124.54817    1/25/2016 12:00    11.41        32.39          0.24    1.62     0.12              2016-01-25T20:00Z  
OC1601A    45.73493  -124.51146    1/25/2016 13:16    11.41        32.39          0.21    1.33     0.13              2016-01-25T21:16Z  
OC1601A    45.73354  -124.28105    1/25/2016 14:07    11.52        32.24          0.27    2.11     0.19              2016-01-25T22:07Z  
OC1601A    45.7365   -124.19097    1/25/2016 14:57    11.45        32.16          0.33    2.51     0.20              2016-01-25T22:57Z  
OC1601A    45.73479  -124.17402    1/25/2016 15:47    11.43        32.10          0.43    2.9      0.22              2016-01-25T23:47Z  
OC1601A    45.73407  -124.13406    1/25/2016 16:37    11.37        31.93          0.29    2.47     0.28              2016-01-26T00:37Z  
OC1601A    45.73379  -124.09998    1/25/2016 17:27    11.32        31.74          0.32    3.01     0.33              2016-01-26T01:27Z  
OC1601A    45.73437  -124.04923    1/25/2016 18:17    11.11        30.20          0.5     4.52     0.61              2016-01-26T02:17Z  
OC1601A    45.73342  -124.02547    1/25/2016 19:08    10.94        27.91          0.83    8.2      1.11              2016-01-26T03:08Z  
OC1601A    45.73338  -124.00166    1/25/2016 21:21    10.77        26.00          0.67    6.34     1.68              2016-01-26T05:21Z  
OC1601A    45.57221  -124.06513    1/25/2016 23:02    11.16        30.02          0.87    6.78     0.70              2016-01-26T07:02Z  
OC1601A    45.5058   -124.07305    1/25/2016 23:52    11.11        29.18          0.58    5.78     0.94              2016-01-26T07:52Z  
OC1601A    45.48058  -124.15589    1/26/2016 0:29     11.38        31.62          1.02    6.1      0.32              2016-01-26T08:29Z  
OC1601A    45.36046  -124.18375    1/26/2016 1:20     11.43        32.09          0.29    2.1      0.20              2016-01-26T09:20Z  
OC1601A    45.25294  -124.1296     1/26/2016 2:10     11.36        31.62          0.47    3.06     0.34              2016-01-26T10:10Z  
OC1601A    45.23126  -124.14664    1/26/2016 3:00     11.37        31.70          0.47    3.78     0.31              2016-01-26T11:00Z  
OC1601A    45.11829  -124.20013    1/26/2016 3:45     11.59        32.35          0.23    1.37     0.18              2016-01-26T11:45Z  
OC1601A    45.02092  -124.18491    1/26/2016 4:36     11.45        31.65          0.28    1.89     0.34              2016-01-26T12:36Z  
OC1601A    44.98267  -124.12396    1/26/2016 5:26     11.28        30.03          0.78    4.79     0.82              2016-01-26T13:26Z  
OC1601A    44.91905  -124.12604    1/26/2016 6:16     11.26        29.61          1.28    8.38     1.00              2016-01-26T14:16Z